ADDS METAR Data INFO

IDs: Format: Raw Decoded Include TAF

Data at: 2356 UTC 30 Sep 2014

Region: TOP
KATL 302352Z 33003KT 10SM FEW050 26/14 A2991 RMK AO2 SLP120 T02610144 10289 20256 53007

KBOS 302254Z 01007KT 10SM BKN008 OVC012 13/12 A3003 RMK AO2 RAE26 SLP167 P0000 T01330122

KBWI 302254Z 00000KT 10SM FEW034 SCT140 SCT250 20/15 A2988 RMK AO2 SLP116 T02000150

KCLE 302351Z 35010KT 10SM BKN017 OVC036 15/12 A2998 RMK AO2 SLP151 T01500117 10161 20150 53008

KCLT 302352Z 00000KT 10SM FEW040 22/16 A2989 RMK AO2 SLP117 T02220161 10283 20200 53005

KCVG 302352Z 02009KT 9SM FEW042 SCT055 BKN200 19/14 A2993 RMK AO2 SLP131 T01890139 10267 20189 53011

KDCA 302352Z 19004KT 10SM FEW034 SCT055 22/17 A2989 RMK AO2 SLP122 T02220167 10261 20217 53007

KDEN 302253Z 30008KT 10SM FEW090 BKN150 BKN220 18/00 A2982 RMK AO2 SLP051 T01780000

KDFW 302253Z 13011KT 10SM SCT065 SCT250 33/17 A2974 RMK AO2 SLP062 T03280167

KDTW 302253Z 34007KT 10SM BKN015 OVC025 13/09 A3000 RMK AO2 SLP161 T01280089

KEWR 302351Z 04007KT 10SM FEW014 SCT035 BKN070 19/15 A2995 RMK AO2 SLP141 T01940150 10206 20194 53006

KFLL 302253Z 25006KT 10SM FEW035 SCT100 OVC250 29/23 A2983 RMK AO2 SLP100 T02940233

KIAD 302352Z 00000KT 10SM FEW100 17/15 A2990 RMK AO2 SLP123 T01670150 10228 20167 53007

KIAH 302253Z 16009KT 10SM FEW045 SCT075 BKN095 BKN250 29/22 A2978 RMK AO2 SLP085 SHRA DSNT SW-W T02890217

KJFK 302351Z 05005KT 10SM FEW015 BKN050 OVC085 18/14 A2996 RMK AO2 SLP146 60000 T01830144 10194 20183 53008 $

KLAS 302256Z 09007KT 10SM FEW120 FEW250 30/02 A2974 RMK AO2 SLP049 T03000017

KLAX 302353Z 26013KT 10SM CLR 22/18 A2977 RMK AO2 SLP080 T02220178 10256 20222 56013

KLGA 302351Z 07007KT 040V100 10SM SCT015 BKN019 OVC080 18/15 A2995 RMK AO2 SLP143 60000 T01830150 10200 20183 50007

KMCO 302253Z 00000KT 10SM FEW019 SCT040 BKN100 BKN220 25/23 A2984 RMK AO2 RAE06 SLP101 CB DSNT SW MOV SE P0000 T02500233

KMDW 302253Z 05009KT 10SM BKN020 BKN250 14/10 A3001 RMK DZB14E47 SLP160 P0000 T01390100

KMEM 302254Z 10003KT 10SM SCT060 BKN250 29/14 A2987 RMK AO2 SLP109 T02940144

KMIA 302253Z 27007KT 10SM FEW027 SCT080 OVC250 30/23 A2984 RMK AO2 TSE19 SLP105 TS DSIPTD CB DSNT N T03000233

KMSP 302253Z 13010KT 10SM FEW065 FEW085 SCT240 BKN300 14/07 A2991 RMK AO2 SLP133 T01390072

KORD 302344Z 04005KT 6SM -DZ BR FEW007 BKN011 OVC020 12/10 A3001 RMK AO2 DZB00 P0000 T01170100 $

KPDX 302253Z 27005KT 10SM FEW025 SCT040 SCT080 18/12 A3013 RMK AO2 RAE06 SLP202 P0002 T01830122

KPHL 302254Z 08014KT 10SM FEW055 BKN140 21/15 A2991 RMK AO2 SLP128 T02060150 $

KPHX 302351Z 24006KT 10SM FEW250 31/01 A2975 RMK AO2 SLP058 T03060006 10317 20272 56015

KPIT 302351Z 00000KT 10SM SCT028 SCT050 SCT250 17/14 A2992 RMK AO2 SLP136 LTG DSNT NW-N 60000 T01720144 10194 20156 53008

KSAN 302351Z VRB03KT 10SM FEW010 24/16 A2979 RMK AO2 SLP086 T02440156 10267 20239 56012

KSEA 302253Z 00000KT 10SM FEW035 BKN080 19/09 A3010 RMK AO2 SLP199 T01890094

KSFO 302256Z 29013KT 10SM FEW020 SCT200 23/15 A2987 RMK AO2 SLP115 T02330150

KSLC 302253Z 19005KT 10SM FEW055 SCT080 BKN110 BKN160 16/07 A2992 RMK AO2 SLPNO SCSL DSNT NE-SE SH DSNT W-NW T01560072

KSTL 302351Z 07007KT 10SM FEW055 SCT250 26/15 A2988 RMK AO2 SLP110 T02560150 10306 20256 56003

KTPA 302253Z 25003KT 10SM FEW045TCU SCT120 SCT200 BKN280 28/22 A2983 RMK AO2 SLP101 CB DSNT SE-S TCU NE-E AND S T02780222


Page loaded:  23:56 UTC  |   04:56 PM Pacific  |   05:56 PM Mountain  |   06:56 PM Central  |   07:56 PM Eastern

 

ADVISORIES

FORECASTS

FORECASTS

OBSERVATIONS

USER TOOLS

ABOUT US